Terminal Aerodrome Forecast
Issued by NWS Duluth, MN

Home | Current Version | Previous Version | Text Only | Print | Product List | Glossary On
Versions: 1 2 3 4 5 6 7 8 9 10 11 12 13 14 15 16 17 18 19 20 21 22
467
FTUS43 KDLH 031740
TAFDLH
TAF
KDLH 031740Z 0318/0418 35012G21KT P6SM FEW040 SCT150
     FM040000 32006KT P6SM FEW050 SCT150
     FM040900 22005KT 2SM BR VCSH SCT030 BKN050
     FM041200 20006KT 1SM -SN BR OVC010=

USA.gov is the U.S. government's official web portal to all federal, state and local government web resources and services.